Kezdőlap
METAR-TAF:

METAR-TAF

Repülőterek :

Belgrád, Szerbia

földrajzi szélesség: 44-49N, földrajzi hosszúság: 020-17E, magasság: 96 m

Jelenlegi meteorológiai megfigyelések

A jelentés 31 perccel ezelõtt készült, 09:30 UTC
Délkeleti szél 9 kt, kelet-délkeleti és déli között változik
Hőmérséklet 28°C
Páratartalom 42%
Légköri nyomás 1020 hPa
Látótávolság 10 km, vagy több
felhőtlen 1500 m magasságban, és nincs gomolyfelhõ

METAR: LYBE 280930Z 13009KT 110V170 CAVOK 28/14 Q1020 NOSIG

Idő: 12:01 (10:01 UTC)

Előrejelzés

A jelentés 5 órával és 1 perccel ezelõtt készült, 05:00 UTC
Az előrejelzés 28-én 06 óra UTC és 29-én 06 óra UTC között érvényes
Délkeleti szél 8 kt
Látótávolság 10 km, vagy több
felhőtlen 1500 m magasságban, és nincs gomolyfelhõ

TAF: LYBE 280500Z 2806/2906 13008KT CAVOK TX30/2813Z TN16/2903Z

Meteorológiai megfigyelések és előrejelzések több, mint 4000 repülőtéren (METAR és TAF jelentéseket).

A térképen piros és sárga pontok jelzik az elérhető meteorológiai állomásokat.

Mozgassa az egeret a pont fölött, hogy megjelenjen az állomás neve.

Azután kattintson az időjárási megfigyelések és előrejelzések megtekintéséhez.

A térkép megváltoztatása: kattintson a fekete keresztel jelölt zöld gombra ráközelítéshez, a vonallal jelölt zöld gombra távolításhoz, vagy a zöld nyilakra a szomszédos térképek eléréséhez.


METAR-TAF: